Time;durP1;ratioP1;P1;durP2;ratioP2;P2;SDS_P1;SDS_P2;PMS_P1;PMS_P2;Temp;Humidity;BMP_temperature;BMP_pressure;BME280_temperature;BME280_humidity;BME280_pressure;Samples;Min_cycle;Max_cycle;Signal;HPM_P1;HPM_P2
2023/09/21 00:00:25;;;;;;;17.45;15.02;;;538.40;2406.40;;;;;;5060301;28;20591;-65
2023/09/21 00:02:51;;;;;;;23.10;17.75;;;538.30;2406.40;;;;;;5083522;28;20107;-63
2023/09/21 00:05:19;;;;;;;21.20;17.17;;;538.40;2406.40;;;;;;5089846;28;20412;-64
2023/09/21 00:07:45;;;;;;;25.30;17.10;;;538.40;2406.40;;;;;;5089369;28;20016;-62
2023/09/21 00:10:12;;;;;;;20.67;16.55;;;538.20;2406.40;;;;;;5078957;28;20374;-62
2023/09/21 00:12:39;;;;;;;25.75;19.58;;;538.20;2406.40;;;;;;5068532;28;20032;-64
2023/09/21 00:15:06;;;;;;;27.48;22.52;;;538.20;2406.40;;;;;;5089483;28;20020;-63
2023/09/21 00:17:37;;;;;;;20.10;15.15;;;538.20;2406.40;;;;;;5089167;28;20044;-63
2023/09/21 00:20:12;;;;;;;19.10;17.08;;;538.20;2406.40;;;;;;5089686;28;20108;-64
2023/09/21 00:22:38;;;;;;;24.27;19.63;;;538.10;2406.40;;;;;;5089681;28;20377;-63
2023/09/21 00:25:07;;;;;;;20.20;17.02;;;538.00;2406.40;;;;;;5089442;28;20531;-65
2023/09/21 00:27:33;;;;;;;22.60;19.15;;;538.00;2406.40;;;;;;5063283;28;20031;-64
2023/09/21 00:30:01;;;;;;;25.40;20.17;;;538.10;2406.40;;;;;;5085522;28;20023;-64
2023/09/21 00:32:27;;;;;;;26.25;17.13;;;538.00;2406.40;;;;;;5062681;28;20074;-64
2023/09/21 00:34:53;;;;;;;23.27;17.10;;;538.00;2406.40;;;;;;5082857;28;20024;-64
2023/09/21 00:37:19;;;;;;;29.85;16.73;;;537.90;2406.40;;;;;;5088709;28;20044;-64
2023/09/21 00:39:47;;;;;;;22.25;15.45;;;537.80;2406.40;;;;;;5088610;28;20093;-64
2023/09/21 00:42:12;;;;;;;18.50;16.13;;;537.80;2406.40;;;;;;5088573;28;20511;-63
2023/09/21 00:44:38;;;;;;;20.88;13.82;;;537.90;2406.40;;;;;;5089419;28;20669;-63
2023/09/21 00:47:04;;;;;;;24.05;16.13;;;537.90;2406.40;;;;;;5088965;28;20039;-63
2023/09/21 00:49:30;;;;;;;29.88;17.90;;;537.80;2406.40;;;;;;5089268;28;20031;-63
2023/09/21 00:51:57;;;;;;;21.98;16.77;;;537.90;2406.40;;;;;;5088773;28;20027;-63
2023/09/21 00:54:24;;;;;;;21.63;16.85;;;537.80;2406.40;;;;;;5088756;28;20031;-62
2023/09/21 00:56:52;;;;;;;20.83;17.05;;;537.80;2406.40;;;;;;5089184;28;20038;-64
2023/09/21 00:59:21;;;;;;;21.23;15.63;;;537.90;2406.40;;;;;;5088456;28;20032;-65
2023/09/21 01:01:48;;;;;;;23.58;15.25;;;537.80;2406.40;;;;;;5082894;28;20436;-65
2023/09/21 01:04:14;;;;;;;19.85;14.90;;;537.90;2406.40;;;;;;5073139;28;20025;-62
2023/09/21 01:06:43;;;;;;;22.02;14.88;;;538.00;2406.40;;;;;;5089089;28;20498;-63
2023/09/21 01:09:09;;;;;;;20.50;14.43;;;538.00;2406.40;;;;;;5088560;28;20032;-64
2023/09/21 01:11:38;;;;;;;21.48;15.43;;;538.00;2406.40;;;;;;5088482;28;20028;-64
2023/09/21 01:14:04;;;;;;;16.70;13.65;;;538.00;2406.40;;;;;;5088700;28;20121;-64
2023/09/21 01:16:30;;;;;;;23.83;14.02;;;538.10;2406.40;;;;;;5088458;28;20056;-63
2023/09/21 01:18:56;;;;;;;19.13;14.82;;;538.10;2406.40;;;;;;5088237;28;20111;-63
2023/09/21 01:21:34;;;;;;;20.42;14.57;;;538.10;2406.40;;;;;;5088733;28;20080;-62
2023/09/21 01:23:59;;;;;;;20.13;15.65;;;538.00;2406.40;;;;;;5088472;28;20031;-62
2023/09/21 01:26:25;;;;;;;19.45;15.10;;;538.00;2406.40;;;;;;5088849;28;20027;-61
2023/09/21 01:28:51;;;;;;;22.13;14.20;;;537.90;2406.40;;;;;;5088760;28;20115;-65
2023/09/21 01:31:18;;;;;;;21.92;15.95;;;537.80;2406.40;;;;;;5088280;28;20024;-65
2023/09/21 01:33:44;;;;;;;20.15;16.30;;;537.80;2406.40;;;;;;5062279;28;20024;-65
2023/09/21 01:36:12;;;;;;;17.30;14.57;;;537.80;2406.40;;;;;;5079787;28;20028;-64
2023/09/21 01:38:38;;;;;;;23.23;13.85;;;537.80;2406.40;;;;;;5088483;28;20036;-62
2023/09/21 01:41:07;;;;;;;20.80;14.38;;;537.80;2406.40;;;;;;5088905;28;20398;-63
2023/09/21 01:43:34;;;;;;;15.95;13.55;;;537.80;2406.40;;;;;;5088822;28;20577;-65
2023/09/21 01:46:00;;;;;;;19.67;15.43;;;537.80;2406.40;;;;;;5088091;28;20103;-66
2023/09/21 01:48:27;;;;;;;18.98;15.55;;;537.80;2406.40;;;;;;5087942;28;20554;-63
2023/09/21 01:50:57;;;;;;;17.70;15.15;;;537.80;2406.40;;;;;;5088604;28;20218;-65
2023/09/21 01:53:23;;;;;;;20.00;14.45;;;537.80;2406.40;;;;;;5090626;28;20047;-65
2023/09/21 01:55:50;;;;;;;18.20;14.88;;;537.80;2406.40;;;;;;5092393;28;20031;-63
2023/09/21 01:58:18;;;;;;;19.17;13.90;;;537.80;2406.40;;;;;;5091799;28;20252;-62
2023/09/21 02:00:48;;;;;;;20.23;14.63;;;537.80;2406.40;;;;;;5091968;28;20089;-65
2023/09/21 02:03:17;;;;;;;22.85;15.07;;;537.70;2406.40;;;;;;5056752;28;20382;-62
2023/09/21 02:05:46;;;;;;;16.85;14.20;;;537.70;2406.40;;;;;;5085856;28;20071;-62
2023/09/21 02:08:13;;;;;;;17.83;12.98;;;537.70;2406.40;;;;;;5092099;28;20020;-62
2023/09/21 02:10:42;;;;;;;20.25;14.43;;;537.80;2406.40;;;;;;5091459;28;20052;-63
2023/09/21 02:13:09;;;;;;;18.25;14.02;;;537.70;2406.40;;;;;;5091935;28;20069;-63
2023/09/21 02:15:39;;;;;;;22.83;14.95;;;537.80;2406.40;;;;;;5091483;28;20044;-61
2023/09/21 02:18:07;;;;;;;20.75;14.48;;;537.70;2406.40;;;;;;5091228;28;20085;-63
2023/09/21 02:20:38;;;;;;;19.98;14.43;;;537.70;2406.40;;;;;;5091899;28;20028;-61
2023/09/21 02:23:05;;;;;;;19.98;14.43;;;537.80;2406.40;;;;;;5091437;28;20055;-61
2023/09/21 02:25:40;;;;;;;22.58;15.73;;;537.80;2406.40;;;;;;5090778;28;20024;-61
2023/09/21 02:28:09;;;;;;;17.85;13.70;;;537.90;2406.40;;;;;;5091867;28;20028;-60
2023/09/21 02:30:40;;;;;;;18.63;14.85;;;537.80;2406.40;;;;;;5091617;28;20024;-61
2023/09/21 02:33:09;;;;;;;16.05;13.23;;;537.80;2406.40;;;;;;5091746;28;20100;-63
2023/09/21 02:35:40;;;;;;;18.33;15.23;;;537.90;2406.40;;;;;;5073037;28;20052;-61
2023/09/21 02:38:08;;;;;;;21.67;15.68;;;537.90;2406.40;;;;;;5063756;28;20036;-60
2023/09/21 02:40:34;;;;;;;18.40;13.85;;;537.80;2406.40;;;;;;5091095;28;20059;-64
2023/09/21 02:42:59;;;;;;;22.55;14.68;;;537.80;2406.40;;;;;;5091266;28;20062;-61
2023/09/21 02:45:25;;;;;;;29.00;15.73;;;537.90;2406.40;;;;;;5090798;28;20031;-60
2023/09/21 02:47:59;;;;;;;17.33;14.00;;;537.90;2406.40;;;;;;5091309;28;20024;-63
2023/09/21 02:50:26;;;;;;;14.75;13.10;;;537.80;2406.40;;;;;;5090826;28;20416;-61
2023/09/21 02:52:56;;;;;;;18.60;12.75;;;537.80;2406.40;;;;;;5091583;28;20149;-66
2023/09/21 02:55:26;;;;;;;17.42;12.65;;;537.90;2406.40;;;;;;5090868;28;20466;-66
2023/09/21 02:58:00;;;;;;;16.30;13.98;;;537.90;2406.40;;;;;;5091151;28;20029;-66
2023/09/21 03:00:29;;;;;;;22.42;14.68;;;537.90;2406.40;;;;;;5091123;28;20539;-63
2023/09/21 03:02:56;;;;;;;28.48;19.17;;;537.80;2406.40;;;;;;5090672;28;20016;-61
2023/09/21 03:05:27;;;;;;;30.10;18.55;;;537.90;2406.40;;;;;;5090423;28;20081;-62
2023/09/21 03:07:54;;;;;;;28.42;19.60;;;537.90;2406.40;;;;;;5083016;28;20035;-67
2023/09/21 03:10:25;;;;;;;28.27;16.33;;;537.80;2406.40;;;;;;5071165;28;20032;-68
2023/09/21 03:12:52;;;;;;;23.92;15.70;;;537.80;2406.40;;;;;;5076998;28;20081;-66
2023/09/21 03:15:22;;;;;;;34.17;21.25;;;537.70;2406.40;;;;;;5090342;28;20052;-68
2023/09/21 03:17:52;;;;;;;18.42;13.95;;;537.70;2406.40;;;;;;5090211;28;20114;-61
2023/09/21 03:20:34;;;;;;;16.67;12.70;;;537.80;2406.40;;;;;;5090139;28;20097;-68
2023/09/21 03:23:05;;;;;;;19.10;13.30;;;537.80;2406.40;;;;;;5090943;28;20612;-68
2023/09/21 03:25:42;;;;;;;17.38;12.63;;;537.70;2406.40;;;;;;5090133;28;20051;-60
2023/09/21 03:28:15;;;;;;;24.00;15.93;;;537.80;2406.40;;;;;;5090210;28;20488;-64
2023/09/21 03:30:46;;;;;;;18.30;14.40;;;537.80;2406.40;;;;;;5090182;28;20024;-61
2023/09/21 03:33:13;;;;;;;18.55;13.65;;;537.90;2406.40;;;;;;5089719;28;20024;-63
2023/09/21 03:35:39;;;;;;;31.13;17.48;;;537.90;2406.40;;;;;;5090413;28;20374;-64
2023/09/21 03:38:06;;;;;;;29.00;19.48;;;537.90;2406.40;;;;;;5089974;28;20028;-63
2023/09/21 03:40:33;;;;;;;17.30;15.38;;;537.90;2406.40;;;;;;5090492;28;20017;-65
2023/09/21 03:42:59;;;;;;;18.35;15.18;;;537.90;2406.40;;;;;;5066790;28;20029;-66
2023/09/21 03:45:25;;;;;;;27.60;14.88;;;537.90;2406.40;;;;;;5078393;28;20032;-61
2023/09/21 03:47:55;;;;;;;20.33;11.75;;;537.90;2406.40;;;;;;5090080;28;20523;-65
2023/09/21 03:50:27;;;;;;;14.07;9.93;;;537.90;2406.40;;;;;;5090499;28;20020;-67
2023/09/21 03:52:53;;;;;;;17.23;10.48;;;537.90;2406.40;;;;;;5089790;28;20028;-62
2023/09/21 03:55:20;;;;;;;15.43;13.02;;;538.00;2406.40;;;;;;5090179;28;20035;-64
2023/09/21 03:57:46;;;;;;;13.80;11.35;;;538.00;2406.40;;;;;;5075896;28;20533;-66
2023/09/21 04:00:38;;;;;;;19.63;11.95;;;538.00;2406.40;;;;;;5090177;28;20110;-67
2023/09/21 04:03:10;;;;;;;19.60;12.25;;;538.00;2406.40;;;;;;5089011;28;20032;-61
2023/09/21 04:05:39;;;;;;;16.98;10.73;;;538.00;2406.40;;;;;;5089732;28;20111;-65
2023/09/21 04:08:05;;;;;;;18.13;11.82;;;538.00;2406.40;;;;;;5089519;28;20050;-67
2023/09/21 04:10:31;;;;;;;19.48;14.05;;;538.00;2406.40;;;;;;5089699;28;20024;-60
2023/09/21 04:12:57;;;;;;;22.10;13.35;;;538.00;2406.40;;;;;;5069399;28;20024;-66
2023/09/21 04:15:28;;;;;;;14.30;12.48;;;538.00;2406.40;;;;;;5083460;28;20032;-61
2023/09/21 04:17:55;;;;;;;18.95;10.85;;;537.90;2406.40;;;;;;5063416;28;20115;-62
2023/09/21 04:20:21;;;;;;;17.77;12.30;;;537.90;2406.40;;;;;;5089546;28;20024;-64
2023/09/21 04:22:53;;;;;;;17.40;12.48;;;538.00;2406.40;;;;;;5089620;28;20504;-66
2023/09/21 04:25:19;;;;;;;21.33;13.23;;;538.00;2406.40;;;;;;5088999;28;20020;-66
2023/09/21 04:27:47;;;;;;;14.13;11.20;;;538.00;2406.40;;;;;;5089141;28;20134;-65
2023/09/21 04:30:15;;;;;;;15.77;11.05;;;538.00;2406.40;;;;;;5089467;28;20390;-67
2023/09/21 04:32:42;;;;;;;15.82;11.07;;;538.00;2406.40;;;;;;5089122;28;20081;-60
2023/09/21 04:35:08;;;;;;;26.55;13.30;;;538.00;2406.40;;;;;;5088959;28;20028;-64
2023/09/21 04:37:35;;;;;;;17.02;12.00;;;538.00;2406.40;;;;;;5089246;28;20055;-65
2023/09/21 04:40:10;;;;;;;17.52;12.48;;;538.00;2406.40;;;;;;5089385;28;20031;-65
2023/09/21 04:42:38;;;;;;;21.58;12.52;;;538.10;2406.40;;;;;;5089097;28;20020;-65
2023/09/21 04:45:16;;;;;;;15.30;12.50;;;538.00;2406.40;;;;;;5088347;28;20024;-61
2023/09/21 04:47:44;;;;;;;23.90;12.07;;;538.10;2406.40;;;;;;5076861;28;20025;-65
2023/09/21 04:50:11;;;;;;;16.00;10.68;;;538.00;2406.40;;;;;;5081428;28;20028;-60
2023/09/21 04:52:37;;;;;;;15.93;11.27;;;538.00;2406.40;;;;;;5088987;28;20106;-64
2023/09/21 04:55:04;;;;;;;19.85;11.60;;;538.00;2406.40;;;;;;5088717;28;20095;-62
2023/09/21 04:57:30;;;;;;;18.13;11.80;;;538.00;2406.40;;;;;;5089454;28;20466;-66
2023/09/21 04:59:57;;;;;;;17.67;11.63;;;538.00;2406.40;;;;;;5088259;28;20103;-65
2023/09/21 05:02:23;;;;;;;17.30;9.60;;;538.10;2406.40;;;;;;5089513;28;20469;-66
2023/09/21 05:04:50;;;;;;;17.13;11.85;;;538.10;2406.40;;;;;;5088718;28;20081;-61
2023/09/21 05:07:17;;;;;;;13.90;9.90;;;538.20;2406.40;;;;;;5088377;28;20032;-62
2023/09/21 05:09:46;;;;;;;14.45;10.63;;;538.20;2406.40;;;;;;5075357;28;20016;-66
2023/09/21 05:12:13;;;;;;;16.05;11.93;;;538.20;2406.40;;;;;;5088916;28;20090;-64
2023/09/21 05:14:39;;;;;;;18.67;11.05;;;538.20;2406.40;;;;;;5070531;28;20052;-64
2023/09/21 05:17:05;;;;;;;18.05;11.32;;;538.30;2406.40;;;;;;5088252;28;20051;-65
2023/09/21 05:19:34;;;;;;;18.42;11.68;;;538.40;2406.40;;;;;;5074952;28;20123;-63
2023/09/21 05:22:01;;;;;;;22.25;12.68;;;538.40;2406.40;;;;;;5081652;28;20025;-60
2023/09/21 05:24:27;;;;;;;16.58;13.75;;;538.20;2406.40;;;;;;5078342;28;20024;-62
2023/09/21 05:26:53;;;;;;;23.83;13.52;;;538.00;2406.40;;;;;;5088829;28;20046;-61
2023/09/21 05:29:22;;;;;;;17.08;13.73;;;538.10;2406.40;;;;;;5092299;28;20400;-64
2023/09/21 05:31:49;;;;;;;16.23;12.13;;;538.10;2406.40;;;;;;5092588;28;20117;-61
2023/09/21 05:34:16;;;;;;;18.25;12.93;;;538.20;2406.40;;;;;;5092363;28;20026;-61
2023/09/21 05:36:45;;;;;;;17.05;12.27;;;538.20;2406.40;;;;;;5078560;28;20032;-61
2023/09/21 05:39:11;;;;;;;23.00;12.05;;;538.30;2406.40;;;;;;5092398;28;20027;-65
2023/09/21 05:41:39;;;;;;;15.20;11.93;;;538.40;2406.40;;;;;;5091916;28;20024;-61
2023/09/21 05:44:05;;;;;;;14.18;10.88;;;538.40;2406.40;;;;;;5092586;28;20067;-62
2023/09/21 05:46:31;;;;;;;19.30;11.93;;;538.50;2406.40;;;;;;5088244;28;20020;-61
2023/09/21 05:48:56;;;;;;;14.85;10.73;;;538.50;2406.40;;;;;;5091716;28;20101;-61
2023/09/21 05:51:22;;;;;;;19.40;11.25;;;538.40;2406.40;;;;;;5092261;28;20510;-62
2023/09/21 05:53:49;;;;;;;17.05;10.05;;;538.40;2406.40;;;;;;5091781;28;20024;-65
2023/09/21 05:56:16;;;;;;;21.20;10.40;;;538.50;2406.40;;;;;;5077444;28;20052;-62
2023/09/21 05:58:41;;;;;;;13.35;9.27;;;538.50;2406.40;;;;;;5077138;28;20438;-64
2023/09/21 06:01:07;;;;;;;14.45;10.25;;;563.30;2432.00;;;;;;5089880;28;20024;-61
2023/09/21 06:03:35;;;;;;;19.35;10.50;;;563.20;2432.00;;;;;;5079921;28;20016;-60
2023/09/21 06:06:01;;;;;;;18.60;11.90;;;563.40;2432.00;;;;;;5091787;28;20116;-61
2023/09/21 06:08:29;;;;;;;23.20;13.57;;;563.50;2432.00;;;;;;5091835;28;20474;-60
2023/09/21 06:10:54;;;;;;;19.20;13.05;;;563.50;2432.00;;;;;;5091634;28;20028;-64
2023/09/21 06:13:20;;;;;;;20.15;13.38;;;563.50;2432.00;;;;;;5091808;28;20418;-64
2023/09/21 06:15:47;;;;;;;18.58;13.00;;;563.60;2432.00;;;;;;5091467;28;20055;-65
2023/09/21 06:18:14;;;;;;;19.30;13.52;;;563.70;2432.00;;;;;;5091669;28;20038;-66
2023/09/21 06:20:43;;;;;;;21.05;11.93;;;563.70;2432.00;;;;;;5088918;28;20079;-64
2023/09/21 06:23:09;;;;;;;18.70;12.77;;;563.90;2432.00;;;;;;5080986;28;20027;-65
2023/09/21 06:25:35;;;;;;;17.25;11.63;;;564.10;2432.00;;;;;;5076353;28;20434;-65
2023/09/21 06:28:01;;;;;;;23.48;12.55;;;564.10;2432.00;;;;;;5079392;28;20025;-64
2023/09/21 06:30:27;;;;;;;16.65;10.77;;;588.90;2432.00;;;;;;5064672;28;20435;-64
2023/09/21 06:32:55;;;;;;;16.20;10.38;;;589.10;2432.00;;;;;;5083145;28;20031;-69
2023/09/21 06:35:23;;;;;;;17.20;11.82;;;589.30;2432.00;;;;;;5090444;28;20103;-66
2023/09/21 06:37:54;;;;;;;19.20;10.82;;;589.30;2432.00;;;;;;5072646;28;20040;-64
2023/09/21 06:40:20;;;;;;;17.75;10.88;;;589.40;2432.00;;;;;;5068268;28;20052;-64
2023/09/21 06:42:46;;;;;;;15.65;10.88;;;589.40;2432.00;;;;;;5072631;28;20036;-68
2023/09/21 06:45:12;;;;;;;15.23;9.98;;;589.40;2432.00;;;;;;5065468;28;20429;-64
2023/09/21 06:47:38;;;;;;;14.13;10.77;;;589.30;2432.00;;;;;;5073439;28;20521;-65
2023/09/21 06:50:07;;;;;;;17.13;10.52;;;589.30;2432.00;;;;;;5069895;28;20078;-67
2023/09/21 06:52:33;;;;;;;14.82;10.93;;;589.30;2432.00;;;;;;5070562;28;20025;-66
2023/09/21 06:55:00;;;;;;;14.88;11.10;;;589.30;2432.00;;;;;;5068639;28;20021;-69
2023/09/21 06:57:28;;;;;;;14.40;10.13;;;589.40;2432.00;;;;;;5070265;28;20028;-67
2023/09/21 06:59:54;;;;;;;16.38;11.82;;;589.50;2432.00;;;;;;5075832;28;20383;-68
2023/09/21 07:02:22;;;;;;;17.77;10.82;;;589.60;2432.00;;;;;;5073117;28;20020;-68
2023/09/21 07:04:48;;;;;;;16.63;10.27;;;589.70;2432.00;;;;;;5090343;28;20095;-65
2023/09/21 07:07:15;;;;;;;12.93;9.23;;;589.70;2432.00;;;;;;5090727;28;20115;-65
2023/09/21 07:09:44;;;;;;;11.60;9.65;;;614.40;2432.00;;;;;;5071963;28;20032;-68
2023/09/21 07:12:11;;;;;;;17.45;11.05;;;589.70;2432.00;;;;;;5089554;28;20518;-70
2023/09/21 07:14:36;;;;;;;17.75;11.80;;;589.70;2432.00;;;;;;5039845;28;20127;-68
2023/09/21 07:17:05;;;;;;;16.20;11.15;;;614.40;2432.00;;;;;;5080709;28;20185;-64
2023/09/21 07:19:31;;;;;;;19.35;12.05;;;589.70;2432.00;;;;;;5089595;28;20059;-69
2023/09/21 07:21:57;;;;;;;18.15;11.73;;;589.70;2432.00;;;;;;5090206;28;20028;-68
2023/09/21 07:24:23;;;;;;;18.55;11.43;;;589.70;2432.00;;;;;;5075870;28;20177;-65
2023/09/21 07:26:49;;;;;;;11.45;10.25;;;589.60;2432.00;;;;;;5075859;28;20531;-67
2023/09/21 07:29:17;;;;;;;20.48;11.15;;;589.70;2432.00;;;;;;5089986;28;20382;-66
2023/09/21 07:31:44;;;;;;;16.80;11.88;;;614.60;2432.00;;;;;;5076622;28;20028;-66
2023/09/21 07:34:10;;;;;;;14.80;10.82;;;614.60;2432.00;;;;;;5079614;28;20099;-67
2023/09/21 07:36:38;;;;;;;15.13;11.40;;;614.60;2432.00;;;;;;5079629;28;20032;-68
2023/09/21 07:39:08;;;;;;;14.27;9.77;;;614.40;2432.00;;;;;;5089912;28;20024;-65
2023/09/21 07:41:34;;;;;;;20.83;10.10;;;614.40;2432.00;;;;;;5090123;28;20032;-66
2023/09/21 07:44:00;;;;;;;15.10;9.57;;;614.50;2432.00;;;;;;5089929;28;20081;-68
2023/09/21 07:46:28;;;;;;;17.88;10.48;;;589.70;2432.00;;;;;;5089085;28;20425;-67
2023/09/21 07:48:53;;;;;;;20.88;11.05;;;589.50;2432.00;;;;;;5089673;28;20423;-65
2023/09/21 07:51:21;;;;;;;20.98;12.48;;;589.30;2432.00;;;;;;5089585;28;20126;-69
2023/09/21 07:53:47;;;;;;;22.02;12.38;;;589.30;2432.00;;;;;;5089624;28;20016;-66
2023/09/21 07:56:13;;;;;;;21.65;13.15;;;589.30;2432.00;;;;;;5089911;28;20078;-68
2023/09/21 07:58:39;;;;;;;24.13;14.98;;;589.30;2432.00;;;;;;5089756;28;20520;-64
2023/09/21 08:01:05;;;;;;;13.93;11.90;;;589.50;2432.00;;;;;;5089567;28;20020;-65
2023/09/21 08:03:31;;;;;;;24.92;13.70;;;614.50;2432.00;;;;;;5075966;28;20029;-68
2023/09/21 08:05:59;;;;;;;19.33;13.10;;;614.70;2432.00;;;;;;5083369;28;20480;-65
2023/09/21 08:08:25;;;;;;;22.10;17.10;;;614.80;2432.00;;;;;;5089492;28;20020;-69
2023/09/21 08:10:56;;;;;;;32.53;18.20;;;614.70;2432.00;;;;;;5084932;28;20040;-69
2023/09/21 08:13:24;;;;;;;27.65;17.00;;;614.70;2432.00;;;;;;5076922;28;20028;-67
2023/09/21 08:15:52;;;;;;;27.40;18.75;;;614.50;2432.00;;;;;;5081285;28;20059;-69
2023/09/21 08:18:18;;;;;;;33.33;18.58;;;589.70;2432.00;;;;;;5068797;28;20592;-69
2023/09/21 08:20:44;;;;;;;26.20;18.00;;;589.50;2432.00;;;;;;5085076;28;20123;-66
2023/09/21 08:23:10;;;;;;;29.67;18.80;;;589.50;2432.00;;;;;;5080858;28;20032;-72
2023/09/21 08:25:37;;;;;;;31.25;17.48;;;589.40;2432.00;;;;;;5083846;28;20020;-71
2023/09/21 08:28:03;;;;;;;32.83;17.40;;;589.40;2432.00;;;;;;5083538;28;20367;-68
2023/09/21 08:30:33;;;;;;;39.65;20.95;;;589.60;2432.00;;;;;;5083203;28;20024;-69
2023/09/21 08:32:59;;;;;;;34.97;19.95;;;589.70;2432.00;;;;;;5080465;28;20458;-71
2023/09/21 08:35:26;;;;;;;38.22;19.52;;;589.60;2432.00;;;;;;5069144;28;20081;-70
2023/09/21 08:37:52;;;;;;;39.67;22.30;;;614.50;2432.00;;;;;;5078216;28;20641;-69
2023/09/21 08:40:21;;;;;;;36.03;20.88;;;614.60;2432.00;;;;;;5081658;28;20020;-70
2023/09/21 08:42:53;;;;;;;38.40;21.48;;;614.60;2432.00;;;;;;5081839;28;20039;-66
2023/09/21 08:45:22;;;;;;;32.30;20.00;;;614.80;2432.00;;;;;;5074903;28;20028;-69
2023/09/21 08:47:49;;;;;;;37.58;21.02;;;615.20;2432.00;;;;;;5088433;28;20032;-65
2023/09/21 08:50:15;;;;;;;36.97;21.15;;;665.70;2432.00;;;;;;5088199;28;20016;-70
2023/09/21 08:52:45;;;;;;;47.08;21.17;;;666.30;2432.00;;;;;;5086878;28;20024;-67
2023/09/21 08:55:16;;;;;;;30.90;19.33;;;691.60;2432.00;;;;;;5075742;28;20471;-66
2023/09/21 08:57:42;;;;;;;35.88;20.25;;;691.40;2432.00;;;;;;5082841;28;20474;-67
2023/09/21 09:00:08;;;;;;;34.38;18.85;;;;;;;;;;5080797;28;20072;-65
2023/09/21 09:02:37;;;;;;;34.15;19.58;;;691.90;2432.00;;;;;;5081271;28;20032;-65
2023/09/21 09:05:07;;;;;;;36.13;17.10;;;691.60;2432.00;;;;;;5088642;28;20855;-68
2023/09/21 09:07:42;;;;;;;39.30;17.13;;;691.30;2432.00;;;;;;5082425;28;20032;-66
2023/09/21 09:10:09;;;;;;;28.67;18.20;;;691.40;2432.00;;;;;;5080264;28;20032;-68
2023/09/21 09:12:35;;;;;;;25.48;16.58;;;691.30;2432.00;;;;;;5065096;28;20041;-67
2023/09/21 09:15:03;;;;;;;28.10;15.32;;;691.40;2432.00;;;;;;5087263;28;20066;-67
2023/09/21 09:17:35;;;;;;;23.77;13.88;;;691.40;2432.00;;;;;;5079556;28;20048;-68
2023/09/21 09:20:03;;;;;;;18.42;12.45;;;691.50;2432.00;;;;;;5082810;28;20016;-68
2023/09/21 09:22:34;;;;;;;20.25;12.65;;;691.60;2432.00;;;;;;5068330;28;20039;-67
2023/09/21 09:25:07;;;;;;;18.98;11.93;;;691.90;2432.00;;;;;;5087328;28;20016;-69
2023/09/21 09:27:33;;;;;;;;;;;691.70;2432.00;;;;;;5083347;28;20028;-68
2023/09/21 09:29:59;;;;;;;20.90;12.20;;;691.80;2432.00;;;;;;5052311;28;19911;-65
2023/09/21 09:32:35;;;;;;;18.98;11.45;;;691.80;2432.00;;;;;;5084457;28;20016;-67
2023/09/21 09:35:02;;;;;;;15.88;9.57;;;;;;;;;;5087126;28;20496;-67
2023/09/21 09:37:29;;;;;;;18.35;10.10;;;;;;;;;;5078782;28;20036;-68
2023/09/21 09:39:56;;;;;;;14.07;9.82;;;;;;;;;;5083915;28;20030;-67
2023/09/21 09:42:22;;;;;;;23.33;9.82;;;716.80;2432.00;;;;;;5081998;28;20056;-70
2023/09/21 09:44:51;;;;;;;14.60;9.52;;;717.10;2432.00;;;;;;5075629;28;20495;-67
2023/09/21 09:47:22;;;;;;;18.27;10.15;;;717.50;2432.00;;;;;;5075889;28;20493;-68
2023/09/21 09:49:51;;;;;;;20.63;8.93;;;717.30;2432.00;;;;;;5068875;28;20025;-69
2023/09/21 09:52:19;;;;;;;13.30;9.82;;;717.40;2432.00;;;;;;5074929;28;20036;-69
2023/09/21 09:54:48;;;;;;;17.83;10.05;;;717.40;2432.00;;;;;;5087432;28;20024;-69
2023/09/21 09:57:15;;;;;;;17.25;9.98;;;717.30;2432.00;;;;;;5088276;28;20043;-70
2023/09/21 09:59:42;;;;;;;18.35;9.30;;;717.50;2406.40;;;;;;5087674;28;20099;-69
2023/09/21 10:02:17;;;;;;;18.83;9.90;;;717.70;2380.80;;;;;;5088265;28;20363;-69
2023/09/21 10:04:46;;;;;;;19.77;10.70;;;717.60;2380.80;;;;;;5071581;28;20077;-67
2023/09/21 10:07:17;;;;;;;17.17;9.10;;;717.60;2380.80;;;;;;5071411;28;20565;-68
2023/09/21 10:09:46;;;;;;;19.83;9.38;;;742.50;2432.00;;;;;;5075702;28;20031;-69
2023/09/21 10:12:12;;;;;;;21.88;9.18;;;742.60;2329.60;;;;;;5070580;28;20063;-69
2023/09/21 10:14:45;;;;;;;14.32;8.13;;;717.50;2278.40;;;;;;5069962;28;20039;-69
2023/09/21 10:17:14;;;;;;;18.83;9.95;;;742.50;2278.40;;;;;;5088155;28;20052;-68
2023/09/21 10:19:43;;;;;;;20.85;8.63;;;742.50;2329.60;;;;;;5089792;28;20478;-69
2023/09/21 10:22:28;;;;;;;18.55;8.80;;;742.50;2278.40;;;;;;5084637;28;20335;-65
2023/09/21 10:24:59;;;;;;;15.25;8.07;;;742.40;2304.00;;;;;;5079334;28;20035;-65
2023/09/21 10:27:28;;;;;;;11.85;8.00;;;742.60;2329.60;;;;;;5087142;28;20071;-68
2023/09/21 10:30:09;;;;;;;17.63;9.00;;;742.60;2278.40;;;;;;5079094;28;20047;-72
2023/09/21 10:32:51;;;;;;;11.70;8.45;;;742.70;2252.80;;;;;;5084025;28;20077;-68
2023/09/21 10:35:42;;;;;;;14.35;8.70;;;742.70;2227.20;;;;;;5087848;28;20520;-72
2023/09/21 10:38:18;;;;;;;16.30;8.60;;;742.80;2201.60;;;;;;5087831;28;20127;-71
2023/09/21 10:40:44;;;;;;;17.30;8.35;;;742.80;2201.60;;;;;;5085216;28;20009;-67
2023/09/21 10:43:38;;;;;;;15.30;8.27;;;743.00;2176.00;;;;;;5070981;28;20042;-71
2023/09/21 10:46:17;;;;;;;16.67;7.28;;;743.10;2150.40;;;;;;5074820;28;20028;-68
2023/09/21 10:49:07;;;;;;;11.32;7.13;;;743.00;2099.20;;;;;;5076236;28;20025;-70
2023/09/21 10:51:33;;;;;;;12.85;7.35;;;;;;;;;;4968120;28;20058;-67
2023/09/21 10:54:03;;;;;;;12.57;7.15;;;;;;;;;;4951624;28;20493;-67
2023/09/21 10:56:29;;;;;;;15.45;6.72;;;;;;;;;;4967753;28;20035;-65
2023/09/21 10:58:55;;;;;;;11.30;6.40;;;;;;;;;;4967271;28;20038;-66
2023/09/21 11:01:22;;;;;;;11.93;6.85;;;;;;;;;;4973501;28;20038;-66
2023/09/21 11:03:50;;;;;;;14.10;6.68;;;;;;;;;;4979776;28;20050;-65
2023/09/21 11:06:17;;;;;;;11.05;6.55;;;;;;;;;;4981630;28;20030;-66
2023/09/21 11:08:45;;;;;;;13.65;7.15;;;;;;;;;;4984275;28;20069;-69
2023/09/21 11:11:12;;;;;;;15.18;6.40;;;;;;;;;;4982993;28;20034;-69
2023/09/21 11:13:39;;;;;;;12.32;6.32;;;;;;;;;;4983949;28;20030;-66
2023/09/21 11:16:06;;;;;;;12.15;6.13;;;;;;;;;;4984895;28;20201;-68
2023/09/21 11:18:32;;;;;;;11.75;5.43;;;;;;;;;;4982760;28;20420;-65
2023/09/21 11:20:59;;;;;;;12.68;5.57;;;768.60;1715.20;;;;;;4982656;28;20040;-66
2023/09/21 11:23:25;;;;;;;21.13;6.22;;;768.40;1689.60;;;;;;4971198;28;20051;-66
2023/09/21 11:25:50;;;;;;;10.82;5.47;;;768.40;1715.20;;;;;;4970656;28;20559;-66
2023/09/21 11:28:19;;;;;;;10.70;5.70;;;768.40;1715.20;;;;;;5005743;28;20605;-72
2023/09/21 11:30:45;;;;;;;10.95;6.15;;;768.60;1689.60;;;;;;5048070;28;20380;-67
2023/09/21 11:33:12;;;;;;;11.57;6.00;;;768.80;1715.20;;;;;;5057378;28;20082;-69
2023/09/21 11:35:38;;;;;;;8.73;5.03;;;768.80;1715.20;;;;;;5047914;28;20048;-65
2023/09/21 11:38:04;;;;;;;12.20;5.50;;;768.90;1740.80;;;;;;5047534;28;20037;-69
2023/09/21 11:40:31;;;;;;;14.43;5.95;;;793.80;1792.00;;;;;;5048098;28;20025;-70
2023/09/21 11:42:59;;;;;;;17.08;5.63;;;793.90;1715.20;;;;;;5048960;28;20435;-71
2023/09/21 11:45:27;;;;;;;13.70;5.75;;;793.70;1689.60;;;;;;5046370;28;20394;-72
2023/09/21 11:47:55;;;;;;;17.08;6.15;;;793.80;1715.20;;;;;;5060709;28;20046;-64
2023/09/21 11:50:30;;;;;;;10.85;5.68;;;793.70;1740.80;;;;;;5063324;28;20044;-71
2023/09/21 11:52:56;;;;;;;15.07;5.97;;;793.60;1689.60;;;;;;5064523;28;20063;-68
2023/09/21 11:55:24;;;;;;;11.38;6.07;;;768.80;1689.60;;;;;;5053788;28;20049;-65
2023/09/21 11:57:50;;;;;;;16.23;6.18;;;768.90;1689.60;;;;;;5049898;28;20132;-66
2023/09/21 12:00:43;;;;;;;16.20;5.47;;;768.90;1689.60;;;;;;5065715;28;20461;-69
2023/09/21 12:03:21;;;;;;;14.55;5.82;;;768.90;1689.60;;;;;;5059913;28;20120;-66
2023/09/21 12:05:47;;;;;;;13.55;6.35;;;793.60;1740.80;;;;;;5064252;28;20050;-64
2023/09/21 12:08:14;;;;;;;16.35;7.13;;;793.60;1740.80;;;;;;5057439;28;20037;-65
2023/09/21 12:10:45;;;;;;;14.93;6.18;;;793.60;1715.20;;;;;;5059891;28;20066;-70
2023/09/21 12:13:11;;;;;;;12.88;5.60;;;793.70;1715.20;;;;;;5046622;28;20029;-68